sensor_id;sensor_type;location;lat;lon;timestamp;P1;durP1;ratioP1;P2;durP2;ratioP2
37303;SDS011;23188;51.188;16.374;2022-08-11T00:00:09;4.33;;;3.58;;
37303;SDS011;23188;51.188;16.374;2022-08-11T00:04:15;6.53;;;5.05;;
37303;SDS011;23188;51.188;16.374;2022-08-11T00:08:24;8.60;;;6.15;;
37303;SDS011;23188;51.188;16.374;2022-08-11T00:12:28;8.83;;;6.58;;
37303;SDS011;23188;51.188;16.374;2022-08-11T00:16:30;10.58;;;7.70;;
37303;SDS011;23188;51.188;16.374;2022-08-11T00:20:34;11.18;;;7.70;;
37303;SDS011;23188;51.188;16.374;2022-08-11T00:24:39;8.15;;;6.03;;
37303;SDS011;23188;51.188;16.374;2022-08-11T00:28:41;7.80;;;5.95;;
37303;SDS011;23188;51.188;16.374;2022-08-11T00:32:44;6.33;;;5.35;;
37303;SDS011;23188;51.188;16.374;2022-08-11T00:37:11;7.90;;;4.42;;
37303;SDS011;23188;51.188;16.374;2022-08-11T00:41:25;10.05;;;5.03;;
37303;SDS011;23188;51.188;16.374;2022-08-11T00:45:38;6.10;;;5.28;;
37303;SDS011;23188;51.188;16.374;2022-08-11T00:54:30;8.58;;;5.12;;
37303;SDS011;23188;51.188;16.374;2022-08-11T01:03:49;6.30;;;5.65;;
37303;SDS011;23188;51.188;16.374;2022-08-11T01:53:58;7.90;;;6.20;;
37303;SDS011;23188;51.188;16.374;2022-08-11T01:58:12;6.65;;;5.70;;
37303;SDS011;23188;51.188;16.374;2022-08-11T02:11:23;9.23;;;6.83;;
37303;SDS011;23188;51.188;16.374;2022-08-11T02:15:45;7.95;;;6.08;;
37303;SDS011;23188;51.188;16.374;2022-08-11T02:24:43;80.03;;;17.42;;
37303;SDS011;23188;51.188;16.374;2022-08-11T02:28:56;16.65;;;8.53;;
37303;SDS011;23188;51.188;16.374;2022-08-11T02:33:27;8.58;;;6.20;;
37303;SDS011;23188;51.188;16.374;2022-08-11T02:41:57;13.43;;;6.60;;
37303;SDS011;23188;51.188;16.374;2022-08-11T02:46:36;7.20;;;5.47;;
37303;SDS011;23188;51.188;16.374;2022-08-11T02:51:01;8.10;;;5.67;;
37303;SDS011;23188;51.188;16.374;2022-08-11T03:04:13;9.43;;;6.47;;
37303;SDS011;23188;51.188;16.374;2022-08-11T03:08:35;8.65;;;6.22;;
37303;SDS011;23188;51.188;16.374;2022-08-11T03:17:39;6.62;;;5.30;;
37303;SDS011;23188;51.188;16.374;2022-08-11T03:27:01;18.80;;;5.58;;
37303;SDS011;23188;51.188;16.374;2022-08-11T03:35:26;6.65;;;5.15;;
37303;SDS011;23188;51.188;16.374;2022-08-11T03:39:36;7.30;;;6.15;;
37303;SDS011;23188;51.188;16.374;2022-08-11T03:43:54;6.20;;;5.60;;
37303;SDS011;23188;51.188;16.374;2022-08-11T03:48:24;8.90;;;6.05;;
37303;SDS011;23188;51.188;16.374;2022-08-11T03:57:14;6.58;;;5.65;;
37303;SDS011;23188;51.188;16.374;2022-08-11T04:01:40;5.65;;;4.72;;
37303;SDS011;23188;51.188;16.374;2022-08-11T04:43:30;8.30;;;5.15;;
37303;SDS011;23188;51.188;16.374;2022-08-11T04:57:16;5.70;;;4.75;;
37303;SDS011;23188;51.188;16.374;2022-08-11T05:06:49;24.30;;;5.70;;
37303;SDS011;23188;51.188;16.374;2022-08-11T05:11:10;5.92;;;4.72;;
37303;SDS011;23188;51.188;16.374;2022-08-11T05:15:50;6.67;;;5.15;;
37303;SDS011;23188;51.188;16.374;2022-08-11T05:20:12;13.62;;;6.80;;
37303;SDS011;23188;51.188;16.374;2022-08-11T05:24:36;10.03;;;5.72;;
37303;SDS011;23188;51.188;16.374;2022-08-11T05:29:35;10.32;;;6.35;;
37303;SDS011;23188;51.188;16.374;2022-08-11T05:34:11;8.53;;;5.72;;
37303;SDS011;23188;51.188;16.374;2022-08-11T05:38:55;6.78;;;5.75;;
37303;SDS011;23188;51.188;16.374;2022-08-11T05:43:21;13.32;;;7.60;;
37303;SDS011;23188;51.188;16.374;2022-08-11T05:47:42;7.00;;;6.28;;
37303;SDS011;23188;51.188;16.374;2022-08-11T05:52:13;10.08;;;6.22;;
37303;SDS011;23188;51.188;16.374;2022-08-11T05:56:33;7.03;;;5.45;;
37303;SDS011;23188;51.188;16.374;2022-08-11T06:00:44;7.62;;;6.55;;
37303;SDS011;23188;51.188;16.374;2022-08-11T06:04:49;8.43;;;6.72;;
37303;SDS011;23188;51.188;16.374;2022-08-11T06:08:57;6.00;;;5.20;;
37303;SDS011;23188;51.188;16.374;2022-08-11T06:13:00;8.60;;;4.83;;
37303;SDS011;23188;51.188;16.374;2022-08-11T06:17:04;9.40;;;5.40;;
37303;SDS011;23188;51.188;16.374;2022-08-11T06:21:08;9.35;;;5.92;;
37303;SDS011;23188;51.188;16.374;2022-08-11T06:25:10;8.90;;;5.35;;
37303;SDS011;23188;51.188;16.374;2022-08-11T06:29:12;5.92;;;4.47;;
37303;SDS011;23188;51.188;16.374;2022-08-11T06:33:20;7.42;;;5.33;;
37303;SDS011;23188;51.188;16.374;2022-08-11T06:37:46;6.00;;;5.10;;
37303;SDS011;23188;51.188;16.374;2022-08-11T06:42:28;3.45;;;2.85;;
37303;SDS011;23188;51.188;16.374;2022-08-11T06:46:43;5.08;;;3.65;;
37303;SDS011;23188;51.188;16.374;2022-08-11T06:50:51;5.90;;;3.50;;
37303;SDS011;23188;51.188;16.374;2022-08-11T06:55:13;3.60;;;3.30;;
37303;SDS011;23188;51.188;16.374;2022-08-11T06:59:42;5.25;;;3.40;;
37303;SDS011;23188;51.188;16.374;2022-08-11T07:04:05;3.47;;;3.12;;
37303;SDS011;23188;51.188;16.374;2022-08-11T07:13:12;4.40;;;3.20;;
37303;SDS011;23188;51.188;16.374;2022-08-11T07:17:36;4.33;;;2.85;;
37303;SDS011;23188;51.188;16.374;2022-08-11T07:21:52;3.87;;;2.85;;
37303;SDS011;23188;51.188;16.374;2022-08-11T07:26:14;4.97;;;2.30;;
37303;SDS011;23188;51.188;16.374;2022-08-11T07:30:38;4.22;;;2.10;;
37303;SDS011;23188;51.188;16.374;2022-08-11T07:34:42;2.77;;;2.52;;
37303;SDS011;23188;51.188;16.374;2022-08-11T07:38:47;3.67;;;1.85;;
37303;SDS011;23188;51.188;16.374;2022-08-11T07:42:52;3.92;;;1.95;;
37303;SDS011;23188;51.188;16.374;2022-08-11T07:46:55;4.22;;;2.70;;
37303;SDS011;23188;51.188;16.374;2022-08-11T07:51:19;3.60;;;2.12;;
37303;SDS011;23188;51.188;16.374;2022-08-11T07:55:41;2.13;;;1.70;;
37303;SDS011;23188;51.188;16.374;2022-08-11T07:59:43;2.10;;;1.62;;
37303;SDS011;23188;51.188;16.374;2022-08-11T08:04:04;3.90;;;1.75;;
37303;SDS011;23188;51.188;16.374;2022-08-11T08:08:26;2.92;;;1.45;;
37303;SDS011;23188;51.188;16.374;2022-08-11T08:12:46;3.40;;;1.67;;
37303;SDS011;23188;51.188;16.374;2022-08-11T08:17:06;3.67;;;2.10;;
37303;SDS011;23188;51.188;16.374;2022-08-11T08:21:28;2.17;;;1.40;;
37303;SDS011;23188;51.188;16.374;2022-08-11T08:25:34;2.20;;;1.77;;
37303;SDS011;23188;51.188;16.374;2022-08-11T08:29:41;2.27;;;1.85;;
37303;SDS011;23188;51.188;16.374;2022-08-11T08:34:02;2.30;;;1.70;;
37303;SDS011;23188;51.188;16.374;2022-08-11T08:38:04;4.53;;;1.50;;
37303;SDS011;23188;51.188;16.374;2022-08-11T08:42:07;3.25;;;1.27;;
37303;SDS011;23188;51.188;16.374;2022-08-11T08:46:11;1.35;;;1.07;;
37303;SDS011;23188;51.188;16.374;2022-08-11T08:50:14;2.85;;;1.20;;
37303;SDS011;23188;51.188;16.374;2022-08-11T08:54:28;3.83;;;1.25;;
37303;SDS011;23188;51.188;16.374;2022-08-11T08:58:33;1.42;;;0.95;;
37303;SDS011;23188;51.188;16.374;2022-08-11T09:02:38;2.52;;;1.55;;
37303;SDS011;23188;51.188;16.374;2022-08-11T09:06:40;1.57;;;1.30;;
37303;SDS011;23188;51.188;16.374;2022-08-11T09:10:44;2.80;;;1.45;;
37303;SDS011;23188;51.188;16.374;2022-08-11T09:14:49;1.52;;;1.20;;
37303;SDS011;23188;51.188;16.374;2022-08-11T09:19:00;9.70;;;2.27;;
37303;SDS011;23188;51.188;16.374;2022-08-11T09:23:04;3.70;;;1.20;;
37303;SDS011;23188;51.188;16.374;2022-08-11T09:27:25;3.72;;;1.62;;
37303;SDS011;23188;51.188;16.374;2022-08-11T09:31:31;4.28;;;1.47;;
37303;SDS011;23188;51.188;16.374;2022-08-11T09:35:33;4.42;;;1.98;;
37303;SDS011;23188;51.188;16.374;2022-08-11T09:39:39;2.25;;;1.80;;
37303;SDS011;23188;51.188;16.374;2022-08-11T09:44:00;4.92;;;2.27;;
37303;SDS011;23188;51.188;16.374;2022-08-11T09:48:22;3.40;;;1.77;;
37303;SDS011;23188;51.188;16.374;2022-08-11T09:56:27;2.65;;;2.02;;
37303;SDS011;23188;51.188;16.374;2022-08-11T10:00:48;4.60;;;1.87;;
37303;SDS011;23188;51.188;16.374;2022-08-11T10:04:51;4.33;;;1.67;;
37303;SDS011;23188;51.188;16.374;2022-08-11T10:08:57;1.85;;;1.10;;
37303;SDS011;23188;51.188;16.374;2022-08-11T10:13:02;3.98;;;1.95;;
37303;SDS011;23188;51.188;16.374;2022-08-11T10:17:08;1.00;;;0.93;;
37303;SDS011;23188;51.188;16.374;2022-08-11T10:21:13;3.90;;;1.72;;
37303;SDS011;23188;51.188;16.374;2022-08-11T10:25:30;2.47;;;1.10;;
37303;SDS011;23188;51.188;16.374;2022-08-11T10:29:50;4.67;;;1.47;;
37303;SDS011;23188;51.188;16.374;2022-08-11T10:34:14;3.13;;;1.40;;
37303;SDS011;23188;51.188;16.374;2022-08-11T10:38:16;1.20;;;1.07;;
37303;SDS011;23188;51.188;16.374;2022-08-11T10:42:19;3.20;;;1.40;;
37303;SDS011;23188;51.188;16.374;2022-08-11T10:46:40;3.77;;;2.22;;
37303;SDS011;23188;51.188;16.374;2022-08-11T10:51:00;2.02;;;1.30;;
37303;SDS011;23188;51.188;16.374;2022-08-11T10:55:15;2.43;;;1.00;;
37303;SDS011;23188;51.188;16.374;2022-08-11T10:59:35;3.60;;;1.35;;
37303;SDS011;23188;51.188;16.374;2022-08-11T11:03:36;3.60;;;2.40;;
37303;SDS011;23188;51.188;16.374;2022-08-11T11:11:59;2.58;;;1.10;;
37303;SDS011;23188;51.188;16.374;2022-08-11T11:16:32;5.67;;;1.77;;
37303;SDS011;23188;51.188;16.374;2022-08-11T11:34:00;1.72;;;1.05;;
37303;SDS011;23188;51.188;16.374;2022-08-11T11:38:12;1.70;;;1.47;;
37303;SDS011;23188;51.188;16.374;2022-08-11T11:42:14;3.70;;;1.50;;
37303;SDS011;23188;51.188;16.374;2022-08-11T11:46:18;1.55;;;1.42;;
37303;SDS011;23188;51.188;16.374;2022-08-11T11:50:23;1.80;;;0.95;;
37303;SDS011;23188;51.188;16.374;2022-08-11T11:54:29;3.40;;;1.20;;
37303;SDS011;23188;51.188;16.374;2022-08-11T11:58:36;2.15;;;1.27;;
37303;SDS011;23188;51.188;16.374;2022-08-11T12:02:58;1.32;;;1.22;;
37303;SDS011;23188;51.188;16.374;2022-08-11T12:07:03;1.45;;;0.98;;
37303;SDS011;23188;51.188;16.374;2022-08-11T12:11:26;1.37;;;1.25;;
37303;SDS011;23188;51.188;16.374;2022-08-11T12:15:47;3.00;;;0.98;;
37303;SDS011;23188;51.188;16.374;2022-08-11T12:19:51;3.95;;;0.78;;
37303;SDS011;23188;51.188;16.374;2022-08-11T12:23:55;2.42;;;0.70;;
37303;SDS011;23188;51.188;16.374;2022-08-11T12:28:18;2.52;;;0.88;;
37303;SDS011;23188;51.188;16.374;2022-08-11T12:32:29;0.60;;;0.50;;
37303;SDS011;23188;51.188;16.374;2022-08-11T12:36:34;0.95;;;0.85;;
37303;SDS011;23188;51.188;16.374;2022-08-11T12:40:56;2.47;;;0.70;;
37303;SDS011;23188;51.188;16.374;2022-08-11T12:45:16;1.55;;;0.65;;
37303;SDS011;23188;51.188;16.374;2022-08-11T12:49:29;1.02;;;0.70;;
37303;SDS011;23188;51.188;16.374;2022-08-11T12:53:59;1.80;;;0.75;;
37303;SDS011;23188;51.188;16.374;2022-08-11T12:58:03;0.75;;;0.60;;
37303;SDS011;23188;51.188;16.374;2022-08-11T13:02:16;1.17;;;0.70;;
37303;SDS011;23188;51.188;16.374;2022-08-11T13:06:39;2.75;;;1.05;;
37303;SDS011;23188;51.188;16.374;2022-08-11T13:10:43;1.10;;;0.80;;
37303;SDS011;23188;51.188;16.374;2022-08-11T13:15:05;47.33;;;8.85;;
37303;SDS011;23188;51.188;16.374;2022-08-11T13:19:09;1.92;;;0.53;;
37303;SDS011;23188;51.188;16.374;2022-08-11T13:23:10;1.27;;;0.90;;
37303;SDS011;23188;51.188;16.374;2022-08-11T13:27:14;0.80;;;0.80;;
37303;SDS011;23188;51.188;16.374;2022-08-11T13:31:18;1.40;;;0.62;;
37303;SDS011;23188;51.188;16.374;2022-08-11T13:35:20;2.08;;;0.50;;
37303;SDS011;23188;51.188;16.374;2022-08-11T13:39:25;2.95;;;0.88;;
37303;SDS011;23188;51.188;16.374;2022-08-11T13:43:28;3.10;;;0.97;;
37303;SDS011;23188;51.188;16.374;2022-08-11T13:47:30;1.07;;;0.68;;
37303;SDS011;23188;51.188;16.374;2022-08-11T13:51:33;1.02;;;0.60;;
37303;SDS011;23188;51.188;16.374;2022-08-11T13:55:38;72.95;;;9.48;;
37303;SDS011;23188;51.188;16.374;2022-08-11T13:59:41;13.93;;;1.65;;
37303;SDS011;23188;51.188;16.374;2022-08-11T14:03:42;9.50;;;1.82;;
37303;SDS011;23188;51.188;16.374;2022-08-11T14:07:51;1.25;;;0.50;;
37303;SDS011;23188;51.188;16.374;2022-08-11T14:11:57;1.20;;;0.80;;
37303;SDS011;23188;51.188;16.374;2022-08-11T14:16:21;1.05;;;0.88;;
37303;SDS011;23188;51.188;16.374;2022-08-11T14:20:33;1.00;;;0.70;;
37303;SDS011;23188;51.188;16.374;2022-08-11T14:24:57;31.83;;;4.37;;
37303;SDS011;23188;51.188;16.374;2022-08-11T14:29:00;1.85;;;0.57;;
37303;SDS011;23188;51.188;16.374;2022-08-11T14:33:18;1.20;;;0.50;;
37303;SDS011;23188;51.188;16.374;2022-08-11T14:37:24;0.90;;;0.60;;
37303;SDS011;23188;51.188;16.374;2022-08-11T14:41:25;1.57;;;1.00;;
37303;SDS011;23188;51.188;16.374;2022-08-11T14:45:46;3.40;;;1.35;;
37303;SDS011;23188;51.188;16.374;2022-08-11T14:50:06;1.10;;;0.93;;
37303;SDS011;23188;51.188;16.374;2022-08-11T14:54:17;0.98;;;0.60;;
37303;SDS011;23188;51.188;16.374;2022-08-11T14:58:36;0.95;;;0.62;;
37303;SDS011;23188;51.188;16.374;2022-08-11T15:02:38;2.60;;;1.15;;
37303;SDS011;23188;51.188;16.374;2022-08-11T15:06:59;3.58;;;1.37;;
37303;SDS011;23188;51.188;16.374;2022-08-11T15:11:01;1.20;;;0.72;;
37303;SDS011;23188;51.188;16.374;2022-08-11T15:15:05;2.42;;;0.57;;
37303;SDS011;23188;51.188;16.374;2022-08-11T15:19:27;2.52;;;0.70;;
37303;SDS011;23188;51.188;16.374;2022-08-11T15:23:31;2.67;;;0.90;;
37303;SDS011;23188;51.188;16.374;2022-08-11T15:27:50;4.22;;;1.00;;
37303;SDS011;23188;51.188;16.374;2022-08-11T15:32:12;1.70;;;0.65;;
37303;SDS011;23188;51.188;16.374;2022-08-11T15:36:22;3.45;;;1.05;;
37303;SDS011;23188;51.188;16.374;2022-08-11T15:40:44;1.20;;;0.85;;
37303;SDS011;23188;51.188;16.374;2022-08-11T15:45:04;1.22;;;1.12;;
37303;SDS011;23188;51.188;16.374;2022-08-11T15:49:28;6.33;;;1.50;;
37303;SDS011;23188;51.188;16.374;2022-08-11T15:53:37;1.25;;;0.70;;
37303;SDS011;23188;51.188;16.374;2022-08-11T15:57:50;1.95;;;1.07;;
37303;SDS011;23188;51.188;16.374;2022-08-11T16:02:12;0.80;;;0.60;;
37303;SDS011;23188;51.188;16.374;2022-08-11T16:06:35;2.37;;;1.07;;
37303;SDS011;23188;51.188;16.374;2022-08-11T16:10:50;1.62;;;0.75;;
37303;SDS011;23188;51.188;16.374;2022-08-11T16:14:57;1.75;;;0.85;;
37303;SDS011;23188;51.188;16.374;2022-08-11T16:19:19;1.10;;;0.68;;
37303;SDS011;23188;51.188;16.374;2022-08-11T16:23:23;2.45;;;0.90;;
37303;SDS011;23188;51.188;16.374;2022-08-11T16:27:27;5.35;;;0.98;;
37303;SDS011;23188;51.188;16.374;2022-08-11T16:31:33;1.17;;;0.70;;
37303;SDS011;23188;51.188;16.374;2022-08-11T16:35:38;1.40;;;0.95;;
37303;SDS011;23188;51.188;16.374;2022-08-11T16:39:58;0.80;;;0.78;;
37303;SDS011;23188;51.188;16.374;2022-08-11T16:44:00;0.78;;;0.68;;
37303;SDS011;23188;51.188;16.374;2022-08-11T16:48:21;1.80;;;0.93;;
37303;SDS011;23188;51.188;16.374;2022-08-11T16:52:26;1.60;;;0.85;;
37303;SDS011;23188;51.188;16.374;2022-08-11T16:56:35;1.17;;;0.93;;
37303;SDS011;23188;51.188;16.374;2022-08-11T17:00:51;6.72;;;1.32;;
37303;SDS011;23188;51.188;16.374;2022-08-11T17:04:52;2.58;;;0.90;;
37303;SDS011;23188;51.188;16.374;2022-08-11T17:09:15;2.02;;;1.32;;
37303;SDS011;23188;51.188;16.374;2022-08-11T17:13:41;1.70;;;1.00;;
37303;SDS011;23188;51.188;16.374;2022-08-11T17:17:48;4.17;;;0.88;;
37303;SDS011;23188;51.188;16.374;2022-08-11T17:21:51;3.02;;;1.07;;
37303;SDS011;23188;51.188;16.374;2022-08-11T17:26:16;4.53;;;1.20;;
37303;SDS011;23188;51.188;16.374;2022-08-11T17:30:29;3.47;;;1.32;;
37303;SDS011;23188;51.188;16.374;2022-08-11T17:34:39;3.65;;;1.17;;
37303;SDS011;23188;51.188;16.374;2022-08-11T17:39:05;2.85;;;1.27;;
37303;SDS011;23188;51.188;16.374;2022-08-11T17:43:08;3.77;;;1.80;;
37303;SDS011;23188;51.188;16.374;2022-08-11T17:47:28;2.45;;;1.80;;
37303;SDS011;23188;51.188;16.374;2022-08-11T17:51:50;3.80;;;2.55;;
37303;SDS011;23188;51.188;16.374;2022-08-11T17:56:11;2.47;;;1.90;;
37303;SDS011;23188;51.188;16.374;2022-08-11T18:00:16;3.60;;;3.12;;
37303;SDS011;23188;51.188;16.374;2022-08-11T18:04:17;5.12;;;2.87;;
37303;SDS011;23188;51.188;16.374;2022-08-11T18:08:21;2.20;;;2.05;;
37303;SDS011;23188;51.188;16.374;2022-08-11T18:12:45;6.67;;;1.10;;
37303;SDS011;23188;51.188;16.374;2022-08-11T18:17:08;3.47;;;2.70;;
37303;SDS011;23188;51.188;16.374;2022-08-11T18:21:28;1.75;;;1.10;;
37303;SDS011;23188;51.188;16.374;2022-08-11T18:25:55;1.30;;;1.17;;
37303;SDS011;23188;51.188;16.374;2022-08-11T18:30:25;1.35;;;1.12;;
37303;SDS011;23188;51.188;16.374;2022-08-11T18:34:46;1.80;;;1.62;;
37303;SDS011;23188;51.188;16.374;2022-08-11T18:39:08;1.92;;;1.12;;
37303;SDS011;23188;51.188;16.374;2022-08-11T18:43:30;3.70;;;2.17;;
37303;SDS011;23188;51.188;16.374;2022-08-11T18:47:55;1.52;;;1.20;;
37303;SDS011;23188;51.188;16.374;2022-08-11T18:52:19;4.00;;;1.30;;
37303;SDS011;23188;51.188;16.374;2022-08-11T18:56:41;5.03;;;1.70;;
37303;SDS011;23188;51.188;16.374;2022-08-11T19:01:04;2.00;;;1.30;;
37303;SDS011;23188;51.188;16.374;2022-08-11T19:05:28;8.20;;;1.52;;
37303;SDS011;23188;51.188;16.374;2022-08-11T19:09:51;4.12;;;1.82;;
37303;SDS011;23188;51.188;16.374;2022-08-11T19:14:13;1.95;;;1.37;;
37303;SDS011;23188;51.188;16.374;2022-08-11T19:18:35;3.58;;;2.08;;
37303;SDS011;23188;51.188;16.374;2022-08-11T19:22:57;6.78;;;1.90;;
37303;SDS011;23188;51.188;16.374;2022-08-11T19:27:18;7.42;;;1.47;;
37303;SDS011;23188;51.188;16.374;2022-08-11T19:31:39;2.50;;;1.12;;
37303;SDS011;23188;51.188;16.374;2022-08-11T19:36:02;2.62;;;2.22;;
37303;SDS011;23188;51.188;16.374;2022-08-11T19:40:22;10.58;;;1.87;;
37303;SDS011;23188;51.188;16.374;2022-08-11T19:44:43;13.85;;;1.80;;
37303;SDS011;23188;51.188;16.374;2022-08-11T19:49:03;3.35;;;1.80;;
37303;SDS011;23188;51.188;16.374;2022-08-11T19:53:26;3.55;;;1.30;;
37303;SDS011;23188;51.188;16.374;2022-08-11T19:57:47;3.10;;;1.20;;
37303;SDS011;23188;51.188;16.374;2022-08-11T20:06:39;5.92;;;2.70;;
37303;SDS011;23188;51.188;16.374;2022-08-11T20:11:01;3.27;;;2.42;;
37303;SDS011;23188;51.188;16.374;2022-08-11T20:15:22;6.08;;;2.72;;
37303;SDS011;23188;51.188;16.374;2022-08-11T20:19:43;5.87;;;3.12;;
37303;SDS011;23188;51.188;16.374;2022-08-11T20:24:04;4.17;;;3.00;;
37303;SDS011;23188;51.188;16.374;2022-08-11T20:28:27;6.67;;;2.75;;
37303;SDS011;23188;51.188;16.374;2022-08-11T20:32:49;4.53;;;1.98;;
37303;SDS011;23188;51.188;16.374;2022-08-11T20:37:11;4.97;;;1.40;;
37303;SDS011;23188;51.188;16.374;2022-08-11T20:41:31;5.95;;;1.62;;
37303;SDS011;23188;51.188;16.374;2022-08-11T20:45:52;3.72;;;2.80;;
37303;SDS011;23188;51.188;16.374;2022-08-11T20:50:12;4.72;;;2.62;;
37303;SDS011;23188;51.188;16.374;2022-08-11T20:54:33;2.20;;;1.70;;
37303;SDS011;23188;51.188;16.374;2022-08-11T20:58:56;1.85;;;1.12;;
37303;SDS011;23188;51.188;16.374;2022-08-11T21:03:17;3.08;;;1.35;;
37303;SDS011;23188;51.188;16.374;2022-08-11T21:07:37;2.60;;;1.20;;
37303;SDS011;23188;51.188;16.374;2022-08-11T21:12:02;1.43;;;1.00;;
37303;SDS011;23188;51.188;16.374;2022-08-11T21:16:27;15.03;;;1.67;;
37303;SDS011;23188;51.188;16.374;2022-08-11T21:20:50;4.22;;;2.02;;
37303;SDS011;23188;51.188;16.374;2022-08-11T21:25:13;5.17;;;1.42;;
37303;SDS011;23188;51.188;16.374;2022-08-11T21:29:36;2.33;;;1.00;;
37303;SDS011;23188;51.188;16.374;2022-08-11T21:33:57;1.12;;;1.02;;
37303;SDS011;23188;51.188;16.374;2022-08-11T21:38:19;6.87;;;2.40;;
37303;SDS011;23188;51.188;16.374;2022-08-11T21:42:39;2.27;;;1.40;;
37303;SDS011;23188;51.188;16.374;2022-08-11T21:47:02;4.62;;;1.37;;
37303;SDS011;23188;51.188;16.374;2022-08-11T21:51:23;16.65;;;1.40;;
37303;SDS011;23188;51.188;16.374;2022-08-11T21:55:43;3.98;;;1.70;;
37303;SDS011;23188;51.188;16.374;2022-08-11T22:00:05;3.40;;;1.85;;
37303;SDS011;23188;51.188;16.374;2022-08-11T22:04:26;4.75;;;2.15;;
37303;SDS011;23188;51.188;16.374;2022-08-11T22:08:51;10.33;;;6.13;;
37303;SDS011;23188;51.188;16.374;2022-08-11T22:13:11;12.82;;;7.28;;
37303;SDS011;23188;51.188;16.374;2022-08-11T22:17:34;14.87;;;9.43;;
37303;SDS011;23188;51.188;16.374;2022-08-11T22:21:53;10.32;;;6.12;;
37303;SDS011;23188;51.188;16.374;2022-08-11T22:26:15;9.90;;;5.28;;
37303;SDS011;23188;51.188;16.374;2022-08-11T22:30:36;7.22;;;4.05;;
37303;SDS011;23188;51.188;16.374;2022-08-11T22:35:14;7.10;;;5.50;;
37303;SDS011;23188;51.188;16.374;2022-08-11T22:39:36;21.37;;;5.97;;
37303;SDS011;23188;51.188;16.374;2022-08-11T22:43:57;6.20;;;3.27;;
37303;SDS011;23188;51.188;16.374;2022-08-11T22:48:16;7.17;;;3.95;;
37303;SDS011;23188;51.188;16.374;2022-08-11T22:52:38;8.30;;;5.20;;
37303;SDS011;23188;51.188;16.374;2022-08-11T22:57:00;8.85;;;5.47;;
37303;SDS011;23188;51.188;16.374;2022-08-11T23:01:20;7.95;;;4.90;;
37303;SDS011;23188;51.188;16.374;2022-08-11T23:05:41;6.50;;;4.62;;
37303;SDS011;23188;51.188;16.374;2022-08-11T23:10:01;4.90;;;4.42;;
37303;SDS011;23188;51.188;16.374;2022-08-11T23:14:22;4.78;;;3.33;;
37303;SDS011;23188;51.188;16.374;2022-08-11T23:18:43;6.65;;;4.35;;
37303;SDS011;23188;51.188;16.374;2022-08-11T23:23:06;11.00;;;4.10;;
37303;SDS011;23188;51.188;16.374;2022-08-11T23:27:27;4.92;;;2.33;;
37303;SDS011;23188;51.188;16.374;2022-08-11T23:31:47;5.72;;;3.02;;
37303;SDS011;23188;51.188;16.374;2022-08-11T23:36:09;5.33;;;3.20;;
37303;SDS011;23188;51.188;16.374;2022-08-11T23:40:29;9.25;;;3.70;;
37303;SDS011;23188;51.188;16.374;2022-08-11T23:44:49;5.58;;;3.12;;
37303;SDS011;23188;51.188;16.374;2022-08-11T23:49:09;3.87;;;2.80;;
37303;SDS011;23188;51.188;16.374;2022-08-11T23:53:29;8.90;;;3.77;;
37303;SDS011;23188;51.188;16.374;2022-08-11T23:57:49;7.53;;;4.15;;
